Time;durP1;ratioP1;P1;durP2;ratioP2;P2;SDS_P1;SDS_P2;PMS_P1;PMS_P2;Temp;Humidity;BMP_temperature;BMP_pressure;BME280_temperature;BME280_humidity;BME280_pressure;Samples;Min_cycle;Max_cycle;Signal;HPM_P1;HPM_P2
2023/05/04 00:01:43;;;;;;;78.78;74.95;;;5.80;99.90;;;;;;5085969;28;20119;-67
2023/05/04 00:04:09;;;;;;;81.20;77.18;;;5.80;99.90;;;;;;5084142;28;20488;-67
2023/05/04 00:06:34;;;;;;;77.90;73.97;;;5.80;99.90;;;;;;5068607;28;20128;-67
2023/05/04 00:09:00;;;;;;;72.78;69.03;;;5.80;99.90;;;;;;5083860;28;20074;-67
2023/05/04 00:11:26;;;;;;;70.63;66.95;;;5.80;99.90;;;;;;5085356;28;20043;-67
2023/05/04 00:13:52;;;;;;;79.93;76.13;;;5.80;99.90;;;;;;5078934;28;20067;-67
2023/05/04 00:16:17;;;;;;;74.75;70.95;;;5.70;99.90;;;;;;5083813;28;20404;-67
2023/05/04 00:18:43;;;;;;;75.85;72.15;;;5.70;99.90;;;;;;5068450;28;20076;-67
2023/05/04 00:21:09;;;;;;;80.15;75.60;;;5.70;99.90;;;;;;5085201;28;20114;-67
2023/05/04 00:23:34;;;;;;;77.68;73.53;;;5.60;99.90;;;;;;5081920;28;20082;-67
2023/05/04 00:26:00;;;;;;;79.70;75.63;;;5.70;99.90;;;;;;5072647;28;20140;-67
2023/05/04 00:28:26;;;;;;;90.53;86.03;;;5.60;99.90;;;;;;5086388;28;20040;-67
2023/05/04 00:30:52;;;;;;;84.22;80.20;;;5.70;99.90;;;;;;5067830;28;20044;-67
2023/05/04 00:33:18;;;;;;;92.28;88.05;;;5.60;99.90;;;;;;5066878;28;20036;-67
2023/05/04 00:35:43;;;;;;;89.45;84.93;;;5.60;99.90;;;;;;5068298;28;20442;-67
2023/05/04 00:38:09;;;;;;;93.28;88.68;;;5.60;99.90;;;;;;5081369;28;20087;-67
2023/05/04 00:40:35;;;;;;;87.95;83.28;;;5.60;99.90;;;;;;5078848;28;20044;-67
2023/05/04 00:43:01;;;;;;;92.40;88.05;;;5.60;99.90;;;;;;5085403;28;20050;-69
2023/05/04 00:45:27;;;;;;;91.28;87.05;;;5.60;99.90;;;;;;5084708;28;20494;-67
2023/05/04 00:47:53;;;;;;;89.15;84.88;;;5.60;99.90;;;;;;5082812;28;20039;-68
2023/05/04 00:50:19;;;;;;;111.82;106.70;;;5.60;99.90;;;;;;5068428;28;20071;-67
2023/05/04 00:52:47;;;;;;;95.32;90.05;;;5.60;99.90;;;;;;5053572;28;20471;-67
2023/05/04 00:55:13;;;;;;;98.78;94.07;;;5.70;99.90;;;;;;5070413;28;20052;-67
2023/05/04 00:57:40;;;;;;;99.05;94.35;;;5.60;99.90;;;;;;5081615;28;20586;-67
2023/05/04 01:00:07;;;;;;;92.30;87.75;;;5.70;99.90;;;;;;5077737;28;20155;-67
2023/05/04 01:02:33;;;;;;;98.82;93.97;;;5.70;99.90;;;;;;5067480;28;20048;-67
2023/05/04 01:05:00;;;;;;;101.10;96.00;;;5.60;99.90;;;;;;5082387;28;20042;-66
2023/05/04 01:07:41;;;;;;;96.30;91.30;;;5.60;99.90;;;;;;5077838;28;20032;-67
2023/05/04 01:10:14;;;;;;;103.97;99.15;;;5.60;99.90;;;;;;5076421;28;20048;-66
2023/05/04 01:12:46;;;;;;;99.35;94.35;;;5.50;99.90;;;;;;5080239;28;20079;-67
2023/05/04 01:15:12;;;;;;;99.25;94.43;;;5.50;99.90;;;;;;5079234;28;21088;-67
2023/05/04 01:17:38;;;;;;;109.07;103.85;;;5.50;99.90;;;;;;5071790;28;20556;-67
2023/05/04 01:20:05;;;;;;;110.15;104.85;;;5.40;99.90;;;;;;5085411;28;20469;-67
2023/05/04 01:22:30;;;;;;;112.78;107.38;;;5.40;99.90;;;;;;5081194;28;20118;-67
2023/05/04 01:24:56;;;;;;;110.00;104.70;;;5.40;99.90;;;;;;5083216;28;20551;-67
2023/05/04 01:27:28;;;;;;;112.25;106.25;;;5.40;99.90;;;;;;5066717;28;20078;-67
2023/05/04 01:30:02;;;;;;;108.68;103.38;;;5.40;99.90;;;;;;5101688;28;20028;-67
2023/05/04 01:32:30;;;;;;;109.53;104.13;;;5.40;99.90;;;;;;5072462;28;20090;-67
2023/05/04 01:34:56;;;;;;;117.13;111.53;;;5.30;99.90;;;;;;5076210;28;20085;-67
2023/05/04 01:37:22;;;;;;;115.00;109.18;;;5.40;99.90;;;;;;5084589;28;20050;-67
2023/05/04 01:39:47;;;;;;;121.80;115.68;;;5.30;99.90;;;;;;5084284;28;20048;-67
2023/05/04 01:42:13;;;;;;;114.95;109.53;;;5.20;99.90;;;;;;5080531;28;20126;-67
2023/05/04 01:44:39;;;;;;;121.68;116.00;;;5.20;99.90;;;;;;5084098;28;20032;-67
2023/05/04 01:47:05;;;;;;;133.25;127.00;;;5.20;99.90;;;;;;5091103;28;20526;-67
2023/05/04 01:49:30;;;;;;;126.93;120.40;;;5.20;99.90;;;;;;5077993;28;20063;-67
2023/05/04 01:51:57;;;;;;;137.50;130.70;;;5.10;99.90;;;;;;5075797;28;20036;-67
2023/05/04 01:54:23;;;;;;;131.93;125.72;;;5.10;99.90;;;;;;5090820;28;20452;-67
2023/05/04 01:56:48;;;;;;;132.85;126.63;;;5.10;99.90;;;;;;5087151;28;20130;-67
2023/05/04 01:59:14;;;;;;;137.90;131.73;;;5.10;99.90;;;;;;5092348;28;20043;-67
2023/05/04 02:01:40;;;;;;;130.32;124.32;;;5.10;99.90;;;;;;5081082;28;20435;-67
2023/05/04 02:04:06;;;;;;;130.88;124.47;;;5.10;99.90;;;;;;5086900;28;20039;-67
2023/05/04 02:06:32;;;;;;;133.50;127.15;;;5.10;99.90;;;;;;5087524;28;20040;-68
2023/05/04 02:08:58;;;;;;;134.48;128.43;;;5.10;99.90;;;;;;5070031;27;20049;-68
2023/05/04 02:11:23;;;;;;;131.23;124.80;;;5.10;99.90;;;;;;5095138;28;20566;-67
2023/05/04 02:13:49;;;;;;;141.02;134.63;;;5.10;99.90;;;;;;5085728;28;20054;-68
2023/05/04 02:16:14;;;;;;;132.10;126.05;;;5.20;99.90;;;;;;5079511;28;20055;-67
2023/05/04 02:18:40;;;;;;;130.77;124.68;;;5.20;99.90;;;;;;5070697;28;20048;-67
2023/05/04 02:21:06;;;;;;;134.23;127.85;;;5.30;99.90;;;;;;5074606;28;20032;-67
2023/05/04 02:23:32;;;;;;;137.55;131.18;;;5.30;99.90;;;;;;5070234;28;20150;-67
2023/05/04 02:25:57;;;;;;;127.75;121.78;;;5.30;99.90;;;;;;5063286;28;20742;-67
2023/05/04 02:28:23;;;;;;;129.57;123.57;;;5.30;99.90;;;;;;5094720;28;20433;-67
2023/05/04 02:30:49;;;;;;;126.60;120.75;;;5.30;99.90;;;;;;5087629;28;20036;-67
2023/05/04 02:33:14;;;;;;;121.85;116.32;;;5.40;99.90;;;;;;5084687;28;20067;-67
2023/05/04 02:35:40;;;;;;;128.48;122.13;;;5.40;99.90;;;;;;5081678;28;20066;-67
2023/05/04 02:38:06;;;;;;;132.73;126.63;;;5.40;99.90;;;;;;5088271;28;20047;-68
2023/05/04 02:40:32;;;;;;;142.10;135.32;;;5.30;99.90;;;;;;5080571;28;20048;-66
2023/05/04 02:42:57;;;;;;;137.43;131.20;;;5.30;99.90;;;;;;5068440;28;20043;-67
2023/05/04 02:45:23;;;;;;;155.93;148.48;;;5.30;99.90;;;;;;5084539;28;20115;-67
2023/05/04 02:47:48;;;;;;;143.77;137.23;;;5.40;99.90;;;;;;5073184;28;20419;-67
2023/05/04 02:50:14;;;;;;;141.98;135.80;;;5.40;99.90;;;;;;5073917;28;20035;-67
2023/05/04 02:52:40;;;;;;;138.85;132.15;;;5.50;99.90;;;;;;5078288;28;20044;-67
2023/05/04 02:55:06;;;;;;;136.32;130.05;;;5.60;99.90;;;;;;5083744;28;20052;-67
2023/05/04 02:57:31;;;;;;;137.25;130.82;;;5.50;99.90;;;;;;5062764;28;20115;-68
2023/05/04 02:59:57;;;;;;;139.70;133.13;;;5.60;99.90;;;;;;5085034;28;20427;-67
2023/05/04 03:02:23;;;;;;;161.50;154.10;;;5.50;99.90;;;;;;5061898;28;20039;-67
2023/05/04 03:04:48;;;;;;;129.60;123.47;;;5.50;99.90;;;;;;5077031;28;20043;-67
2023/05/04 03:07:14;;;;;;;163.60;156.10;;;5.50;99.90;;;;;;5089867;28;20487;-67
2023/05/04 03:09:40;;;;;;;176.73;168.77;;;5.50;99.90;;;;;;5084913;28;20039;-67
2023/05/04 03:12:05;;;;;;;150.23;143.45;;;5.50;99.90;;;;;;5086405;28;20040;-67
2023/05/04 03:14:31;;;;;;;172.90;165.15;;;5.50;99.90;;;;;;5081125;28;20032;-67
2023/05/04 03:16:57;;;;;;;143.27;136.60;;;5.50;99.90;;;;;;5084512;28;20036;-67
2023/05/04 03:19:23;;;;;;;134.88;128.15;;;5.60;99.90;;;;;;5081803;28;20048;-67
2023/05/04 03:21:49;;;;;;;187.38;179.35;;;5.60;99.90;;;;;;5080079;28;20028;-67
2023/05/04 03:24:17;;;;;;;147.45;140.65;;;5.60;99.90;;;;;;5079741;28;20064;-67
2023/05/04 03:26:43;;;;;;;169.80;162.55;;;5.70;99.90;;;;;;5066705;28;20052;-67
2023/05/04 03:29:09;;;;;;;139.90;133.35;;;5.70;99.90;;;;;;5063198;28;20487;-67
2023/05/04 03:31:35;;;;;;;153.35;146.48;;;5.80;99.90;;;;;;5057689;28;20035;-67
2023/05/04 03:34:02;;;;;;;153.70;146.60;;;5.80;99.90;;;;;;5083832;28;20543;-67
2023/05/04 03:36:28;;;;;;;144.50;138.00;;;5.80;99.90;;;;;;5085387;28;20048;-67
2023/05/04 03:38:53;;;;;;;129.55;123.35;;;5.80;99.90;;;;;;5086234;28;20040;-67
2023/05/04 03:41:20;;;;;;;160.35;153.00;;;5.80;99.90;;;;;;5065168;28;20044;-67
2023/05/04 03:43:45;;;;;;;153.50;146.55;;;5.80;99.90;;;;;;5083985;28;20079;-67
2023/05/04 03:46:11;;;;;;;140.52;134.02;;;5.90;99.90;;;;;;5069619;28;20146;-67
2023/05/04 03:48:38;;;;;;;136.68;130.27;;;5.80;99.90;;;;;;5080544;28;20036;-67
2023/05/04 03:51:05;;;;;;;150.82;143.93;;;5.90;99.90;;;;;;5085958;28;20052;-68
2023/05/04 03:53:33;;;;;;;166.05;158.70;;;5.90;99.90;;;;;;5077789;28;20043;-67
2023/05/04 03:55:59;;;;;;;171.57;163.98;;;6.00;99.90;;;;;;5083368;28;20097;-67
2023/05/04 03:58:24;;;;;;;149.07;142.10;;;6.00;99.90;;;;;;5080076;28;20044;-67
2023/05/04 04:00:50;;;;;;;151.07;144.27;;;6.00;99.90;;;;;;5080146;28;20039;-67
2023/05/04 04:03:16;;;;;;;153.00;145.73;;;6.10;99.90;;;;;;5083079;28;20040;-67
2023/05/04 04:05:41;;;;;;;140.90;134.45;;;6.10;99.90;;;;;;5081105;28;20040;-67
2023/05/04 04:08:07;;;;;;;145.30;138.82;;;6.10;99.90;;;;;;5078752;28;20057;-67
2023/05/04 04:10:33;;;;;;;139.85;133.43;;;6.10;99.90;;;;;;5079060;28;20051;-67
2023/05/04 04:12:59;;;;;;;119.47;113.90;;;6.20;99.90;;;;;;5084100;28;20045;-67
2023/05/04 04:15:25;;;;;;;125.80;120.15;;;6.20;99.90;;;;;;5086098;28;20047;-68
2023/05/04 04:17:51;;;;;;;115.53;110.18;;;6.20;99.90;;;;;;5081184;28;20067;-67
2023/05/04 04:20:17;;;;;;;117.75;111.85;;;6.20;99.90;;;;;;5079335;28;20487;-67
2023/05/04 04:22:42;;;;;;;115.43;109.95;;;6.20;99.90;;;;;;5067401;28;20472;-67
2023/05/04 04:25:09;;;;;;;119.93;114.43;;;6.20;99.90;;;;;;5083097;28;20052;-68
2023/05/04 04:27:35;;;;;;;110.00;104.90;;;6.30;99.90;;;;;;5085230;28;20075;-67
2023/05/04 04:30:02;;;;;;;108.22;102.95;;;6.30;99.90;;;;;;5071869;28;20120;-67
2023/05/04 04:32:28;;;;;;;111.53;106.00;;;6.30;99.90;;;;;;5082113;28;20480;-67
2023/05/04 04:34:54;;;;;;;127.88;121.97;;;6.30;99.90;;;;;;5076413;28;20043;-67
2023/05/04 04:37:20;;;;;;;112.53;106.75;;;6.30;99.90;;;;;;5071813;28;20110;-67
2023/05/04 04:39:46;;;;;;;102.95;98.22;;;6.30;99.90;;;;;;5070944;28;20543;-67
2023/05/04 04:42:12;;;;;;;106.53;101.45;;;6.30;99.90;;;;;;5090873;27;20473;-67
2023/05/04 04:44:38;;;;;;;104.65;99.88;;;6.40;99.90;;;;;;5091759;28;20047;-67
2023/05/04 04:47:05;;;;;;;107.07;101.75;;;6.40;99.90;;;;;;5079600;28;20482;-67
2023/05/04 04:49:31;;;;;;;104.15;99.18;;;6.50;99.90;;;;;;5085368;28;20035;-67
2023/05/04 04:51:56;;;;;;;105.68;100.70;;;6.50;99.90;;;;;;5087603;28;20483;-67
2023/05/04 04:54:22;;;;;;;99.55;94.85;;;6.50;99.90;;;;;;5089291;28;20055;-67
2023/05/04 04:56:48;;;;;;;99.43;94.53;;;6.60;99.90;;;;;;5088619;28;20047;-67
2023/05/04 04:59:13;;;;;;;97.05;92.10;;;6.60;99.90;;;;;;5065164;28;20067;-67
2023/05/04 05:01:40;;;;;;;90.85;86.70;;;6.60;99.90;;;;;;5069946;28;20047;-67
2023/05/04 05:04:06;;;;;;;91.25;87.18;;;6.70;99.90;;;;;;5072195;28;20402;-67
2023/05/04 05:06:32;;;;;;;90.38;85.80;;;6.70;99.90;;;;;;5078379;28;20040;-67
2023/05/04 05:08:58;;;;;;;91.10;86.70;;;6.80;99.90;;;;;;5106499;28;20039;-67
2023/05/04 05:11:24;;;;;;;87.85;83.70;;;6.80;99.90;;;;;;5090934;28;20118;-68
2023/05/04 05:13:49;;;;;;;90.10;85.97;;;6.90;99.90;;;;;;5069898;28;21203;-68
2023/05/04 05:16:15;;;;;;;93.43;89.00;;;6.90;99.90;;;;;;5104230;27;20040;-68
2023/05/04 05:18:41;;;;;;;85.13;80.80;;;6.90;99.90;;;;;;5076426;27;20031;-68
2023/05/04 05:21:08;;;;;;;87.63;83.72;;;7.00;99.90;;;;;;5080802;28;20047;-67
2023/05/04 05:23:34;;;;;;;77.15;73.15;;;7.00;99.90;;;;;;5089697;28;20040;-67
2023/05/04 05:26:00;;;;;;;77.55;73.57;;;7.10;99.90;;;;;;5067842;28;20813;-67
2023/05/04 05:28:26;;;;;;;76.43;72.82;;;7.20;99.90;;;;;;5074749;28;20048;-67
2023/05/04 05:30:51;;;;;;;72.57;68.95;;;7.20;99.90;;;;;;5080271;28;20607;-67
2023/05/04 05:33:17;;;;;;;74.93;70.63;;;7.30;99.90;;;;;;5087985;28;20043;-68
2023/05/04 05:35:43;;;;;;;69.32;65.68;;;7.40;99.90;;;;;;5087906;28;20044;-68
2023/05/04 05:38:09;;;;;;;67.47;63.83;;;7.40;99.90;;;;;;5081528;28;20036;-67
2023/05/04 05:40:35;;;;;;;59.45;55.90;;;7.50;99.90;;;;;;5085191;28;20056;-68
2023/05/04 05:43:03;;;;;;;60.53;57.13;;;7.60;99.90;;;;;;5071748;28;20081;-67
2023/05/04 05:45:28;;;;;;;59.75;56.53;;;7.60;99.90;;;;;;5083020;28;20039;-68
2023/05/04 05:47:54;;;;;;;55.75;52.65;;;7.80;99.90;;;;;;5072916;28;20044;-68
2023/05/04 05:50:19;;;;;;;50.75;47.95;;;7.90;99.90;;;;;;5087144;28;20400;-67
2023/05/04 05:52:45;;;;;;;50.00;47.22;;;7.90;99.90;;;;;;5070006;28;20044;-68
2023/05/04 05:55:11;;;;;;;51.63;48.28;;;8.00;99.90;;;;;;5090049;28;20135;-68
2023/05/04 05:57:36;;;;;;;45.83;43.10;;;8.00;99.90;;;;;;5090533;28;20050;-68
2023/05/04 06:00:03;;;;;;;47.03;44.40;;;8.10;99.90;;;;;;5071394;28;20038;-68
2023/05/04 06:02:29;;;;;;;49.50;46.45;;;8.20;99.90;;;;;;5081082;28;20097;-68
2023/05/04 06:04:55;;;;;;;51.08;48.15;;;8.20;99.90;;;;;;5074680;28;20472;-67
2023/05/04 06:07:21;;;;;;;51.20;48.00;;;8.40;99.90;;;;;;5080546;28;20486;-68
2023/05/04 06:09:46;;;;;;;52.63;49.40;;;8.40;99.90;;;;;;5071993;28;20046;-68
2023/05/04 06:12:13;;;;;;;58.28;54.63;;;8.50;99.90;;;;;;5083235;28;20583;-68
2023/05/04 06:14:39;;;;;;;60.50;57.40;;;8.60;99.90;;;;;;5087270;28;20067;-67
2023/05/04 06:17:05;;;;;;;72.75;68.82;;;8.70;99.90;;;;;;5089073;28;20456;-67
2023/05/04 06:19:34;;;;;;;68.70;64.90;;;8.80;99.90;;;;;;5085162;28;20473;-68
2023/05/04 06:22:00;;;;;;;70.75;66.90;;;8.80;99.90;;;;;;5070939;28;20081;-69
2023/05/04 06:24:25;;;;;;;88.15;83.75;;;9.00;99.90;;;;;;5080747;28;20446;-68
2023/05/04 06:26:51;;;;;;;98.20;93.30;;;9.40;99.90;;;;;;5086444;28;20173;-68
2023/05/04 06:29:17;;;;;;;104.03;99.05;;;9.80;99.90;;;;;;5089560;28;20056;-68
2023/05/04 06:31:45;;;;;;;109.85;104.78;;;10.20;99.90;;;;;;5085342;28;20040;-68
2023/05/04 06:34:10;;;;;;;102.97;98.10;;;10.30;99.90;;;;;;5081727;28;20044;-68
2023/05/04 06:36:36;;;;;;;89.00;84.72;;;10.30;99.90;;;;;;5081262;28;20158;-68
2023/05/04 06:39:01;;;;;;;94.55;89.57;;;10.20;99.90;;;;;;5061438;28;20032;-68
2023/05/04 06:41:27;;;;;;;113.38;107.97;;;10.20;99.90;;;;;;5087720;28;20474;-67
2023/05/04 06:43:53;;;;;;;100.97;96.22;;;10.10;99.90;;;;;;5085856;28;20072;-68
2023/05/04 06:46:19;;;;;;;114.85;109.18;;;10.30;99.90;;;;;;5088109;28;20519;-68
2023/05/04 06:48:44;;;;;;;77.20;73.43;;;10.50;99.90;;;;;;5088173;28;20112;-68
2023/05/04 06:51:10;;;;;;;89.45;85.13;;;10.60;99.90;;;;;;5066207;28;20469;-68
2023/05/04 06:53:36;;;;;;;84.30;79.75;;;10.90;99.90;;;;;;5087571;28;20046;-68
2023/05/04 06:56:02;;;;;;;61.03;57.85;;;11.30;99.90;;;;;;5086502;28;20044;-68
2023/05/04 06:58:28;;;;;;;65.75;62.33;;;11.60;99.90;;;;;;5092136;28;20040;-68
2023/05/04 07:00:53;;;;;;;56.65;52.90;;;11.90;99.90;;;;;;5085691;28;20086;-68
2023/05/04 07:03:19;;;;;;;58.03;54.63;;;12.20;99.90;;;;;;5071220;28;20036;-68
2023/05/04 07:05:47;;;;;;;51.97;49.08;;;12.50;99.90;;;;;;5088348;28;20063;-68
2023/05/04 07:08:13;;;;;;;54.05;50.85;;;12.80;99.90;;;;;;5070525;28;20032;-68
2023/05/04 07:10:38;;;;;;;47.03;44.22;;;12.90;99.90;;;;;;5085686;28;20468;-69
2023/05/04 07:13:04;;;;;;;37.83;35.22;;;12.90;99.90;;;;;;5074298;28;20040;-69
2023/05/04 07:15:30;;;;;;;48.85;46.00;;;12.80;99.90;;;;;;5059397;28;20069;-68
2023/05/04 07:17:56;;;;;;;48.30;45.40;;;12.50;99.90;;;;;;5082164;28;20044;-68
2023/05/04 07:20:21;;;;;;;49.58;46.67;;;12.20;99.90;;;;;;5070110;28;20052;-68
2023/05/04 07:22:47;;;;;;;47.03;44.22;;;12.10;99.90;;;;;;5079453;28;20048;-68
2023/05/04 07:25:13;;;;;;;37.78;35.00;;;12.00;99.90;;;;;;5080864;28;20056;-68
2023/05/04 07:27:40;;;;;;;32.58;30.48;;;12.00;99.90;;;;;;5081672;28;20047;-68
2023/05/04 07:30:07;;;;;;;35.63;33.25;;;11.80;99.90;;;;;;5085950;28;20036;-68
2023/05/04 07:32:32;;;;;;;37.88;35.47;;;11.60;99.90;;;;;;5082539;28;20500;-68
2023/05/04 07:34:58;;;;;;;46.00;43.40;;;11.40;99.90;;;;;;5082698;28;20047;-68
2023/05/04 07:37:23;;;;;;;37.13;34.50;;;11.30;99.90;;;;;;5082773;28;20087;-68
2023/05/04 07:39:49;;;;;;;50.75;47.58;;;11.40;99.90;;;;;;5085814;28;20028;-68
2023/05/04 07:42:15;;;;;;;41.10;38.47;;;11.50;99.90;;;;;;5077404;28;20108;-68
2023/05/04 07:44:41;;;;;;;47.05;44.22;;;11.60;99.90;;;;;;5073699;28;20220;-68
2023/05/04 07:47:07;;;;;;;36.53;34.13;;;11.70;99.90;;;;;;5075540;28;20525;-68
2023/05/04 07:49:32;;;;;;;42.70;40.10;;;11.70;99.90;;;;;;5077711;28;20492;-68
2023/05/04 07:51:58;;;;;;;33.92;31.58;;;11.80;99.90;;;;;;5067449;28;20117;-68
2023/05/04 07:54:24;;;;;;;37.20;34.92;;;11.90;99.90;;;;;;5079314;28;20189;-68
2023/05/04 07:56:50;;;;;;;52.80;49.80;;;11.90;99.90;;;;;;5051363;28;20135;-68
2023/05/04 07:59:18;;;;;;;52.15;48.97;;;11.90;99.90;;;;;;5067323;28;20048;-68
2023/05/04 08:01:45;;;;;;;43.58;40.58;;;12.00;99.90;;;;;;5069901;28;20055;-68
2023/05/04 08:04:10;;;;;;;44.53;41.85;;;12.10;99.90;;;;;;5079204;28;20438;-68
2023/05/04 08:06:38;;;;;;;51.53;48.42;;;12.20;99.90;;;;;;5069547;28;20040;-68
2023/05/04 08:09:06;;;;;;;42.30;39.88;;;12.30;99.90;;;;;;5086304;28;20387;-68
2023/05/04 08:11:36;;;;;;;48.97;46.13;;;12.40;99.90;;;;;;5078172;28;20036;-68
2023/05/04 08:14:02;;;;;;;44.83;42.17;;;12.50;99.90;;;;;;5086487;28;20444;-68
2023/05/04 08:16:28;;;;;;;29.65;27.55;;;12.50;99.90;;;;;;5086730;28;20074;-68
2023/05/04 08:18:55;;;;;;;37.00;34.70;;;12.60;99.90;;;;;;5072047;28;20119;-68
2023/05/04 08:21:21;;;;;;;26.95;24.83;;;12.50;99.90;;;;;;5081874;28;20086;-68
2023/05/04 08:23:47;;;;;;;28.20;26.35;;;12.50;99.90;;;;;;5085110;28;20454;-68
2023/05/04 08:26:13;;;;;;;69.03;65.35;;;12.50;99.90;;;;;;5076422;28;20131;-68
2023/05/04 08:28:41;;;;;;;50.47;47.53;;;12.60;99.90;;;;;;5085624;28;20147;-68
2023/05/04 08:31:07;;;;;;;36.78;34.30;;;12.70;99.90;;;;;;5054800;28;20063;-68
2023/05/04 08:33:33;;;;;;;35.47;32.90;;;12.80;99.90;;;;;;5069534;28;20106;-68
2023/05/04 08:35:59;;;;;;;37.78;35.33;;;12.90;99.90;;;;;;5084339;28;20036;-68
2023/05/04 08:38:25;;;;;;;42.80;40.00;;;12.90;99.90;;;;;;5059425;28;20056;-68
2023/05/04 08:40:51;;;;;;;73.13;69.32;;;13.00;99.90;;;;;;5082121;28;20468;-68
2023/05/04 08:43:17;;;;;;;30.65;28.23;;;13.20;99.90;;;;;;5083004;28;20388;-68
2023/05/04 08:45:44;;;;;;;29.45;27.27;;;13.60;99.90;;;;;;5063636;28;20050;-68
2023/05/04 08:48:09;;;;;;;25.48;23.27;;;13.80;99.90;;;;;;5083269;28;20040;-68
2023/05/04 08:50:37;;;;;;;25.13;23.02;;;13.90;99.90;;;;;;5064950;28;20093;-68
2023/05/04 08:53:05;;;;;;;24.20;22.40;;;14.00;99.90;;;;;;5080203;28;20036;-68
2023/05/04 08:55:34;;;;;;;23.50;21.60;;;14.20;99.90;;;;;;5083190;28;20043;-68
2023/05/04 08:58:03;;;;;;;24.20;22.23;;;14.30;99.90;;;;;;5079311;28;20465;-68
2023/05/04 09:00:30;;;;;;;24.02;22.33;;;14.30;99.90;;;;;;5063728;28;20054;-69
2023/05/04 09:02:58;;;;;;;23.63;21.58;;;14.40;99.90;;;;;;5086893;28;20078;-68
2023/05/04 09:05:25;;;;;;;23.42;21.60;;;14.60;99.90;;;;;;5082962;28;20427;-68
2023/05/04 09:07:51;;;;;;;24.25;22.17;;;14.70;99.90;;;;;;5075323;28;20082;-69
2023/05/04 09:10:18;;;;;;;23.35;21.45;;;15.10;99.90;;;;;;5084213;28;20466;-68
2023/05/04 09:12:44;;;;;;;23.77;21.92;;;15.40;99.90;;;;;;5073260;28;20483;-69
2023/05/04 09:15:16;;;;;;;28.00;26.00;;;15.70;99.90;;;;;;5075296;28;20040;-68
2023/05/04 09:17:43;;;;;;;26.23;24.10;;;15.70;99.90;;;;;;5082725;28;20035;-68
2023/05/04 09:20:09;;;;;;;32.05;30.00;;;15.70;99.90;;;;;;5067441;28;20036;-68
2023/05/04 09:22:35;;;;;;;25.05;23.20;;;15.70;99.90;;;;;;5077354;28;20044;-68
2023/05/04 09:25:09;;;;;;;23.25;21.27;;;15.80;99.90;;;;;;5076545;28;20553;-68
2023/05/04 09:27:34;;;;;;;25.15;23.20;;;16.00;99.90;;;;;;5080931;28;20043;-69
2023/05/04 09:30:00;;;;;;;27.95;25.85;;;16.30;99.90;;;;;;5088397;28;20073;-68
2023/05/04 09:32:27;;;;;;;24.75;22.75;;;16.50;99.90;;;;;;5072350;28;20088;-68
2023/05/04 09:34:53;;;;;;;17.98;16.23;;;16.60;99.90;;;;;;5088055;28;20040;-68
2023/05/04 09:37:20;;;;;;;17.48;15.57;;;16.60;98.20;;;;;;5087109;28;20032;-68
2023/05/04 09:39:57;;;;;;;20.15;18.52;;;16.30;96.40;;;;;;5078898;28;20040;-68
2023/05/04 09:42:24;;;;;;;33.38;31.20;;;16.10;97.90;;;;;;5103128;28;20492;-68
2023/05/04 09:45:06;;;;;;;35.45;33.28;;;16.00;98.80;;;;;;5087350;28;20090;-68
2023/05/04 09:47:33;;;;;;;32.63;30.48;;;16.40;99.30;;;;;;5087812;28;20088;-68
2023/05/04 09:50:17;;;;;;;31.63;29.52;;;16.60;99.50;;;;;;5070580;28;20043;-68
2023/05/04 09:52:45;;;;;;;17.02;15.27;;;17.00;99.30;;;;;;5079263;28;20043;-69
2023/05/04 09:55:13;;;;;;;17.83;16.02;;;17.10;96.40;;;;;;5088683;28;20043;-68
2023/05/04 09:57:43;;;;;;;17.67;15.98;;;17.00;96.60;;;;;;5079675;28;20039;-69
2023/05/04 10:00:18;;;;;;;27.25;25.17;;;17.10;95.60;;;;;;5065052;28;20441;-68
2023/05/04 10:02:45;;;;;;;18.35;16.75;;;17.10;96.40;;;;;;5064132;28;20138;-69
2023/05/04 10:05:15;;;;;;;17.92;15.18;;;17.20;95.20;;;;;;5088521;28;20039;-69
2023/05/04 10:07:42;;;;;;;18.73;17.00;;;17.30;96.60;;;;;;5108226;28;20126;-68
2023/05/04 10:10:10;;;;;;;21.25;19.45;;;17.40;95.20;;;;;;5086803;28;20039;-68
2023/05/04 10:12:36;;;;;;;20.45;18.85;;;17.30;93.70;;;;;;5083159;28;20054;-68
2023/05/04 10:15:06;;;;;;;19.45;17.35;;;17.10;93.10;;;;;;5083325;28;20487;-68
2023/05/04 10:17:52;;;;;;;16.15;14.70;;;17.00;93.60;;;;;;5091994;28;20035;-68
2023/05/04 10:20:24;;;;;;;19.95;18.25;;;17.00;94.20;;;;;;5066278;28;20036;-69
2023/05/04 10:23:08;;;;;;;17.15;15.70;;;17.20;94.70;;;;;;5089185;28;20083;-69
2023/05/04 10:25:52;;;;;;;19.30;17.63;;;17.40;95.00;;;;;;5063235;28;20473;-68
2023/05/04 10:28:38;;;;;;;18.00;16.50;;;17.60;93.70;;;;;;5087309;28;20044;-68
2023/05/04 10:31:05;;;;;;;18.60;16.90;;;17.80;93.20;;;;;;5060931;28;20044;-68
2023/05/04 10:33:38;;;;;;;17.60;16.08;;;17.80;93.50;;;;;;5083793;28;20048;-69
2023/05/04 10:36:04;;;;;;;21.05;19.23;;;17.90;93.60;;;;;;5081662;28;20048;-69
2023/05/04 10:38:37;;;;;;;20.30;18.70;;;18.10;91.80;;;;;;5079262;28;20040;-68
2023/05/04 10:41:13;;;;;;;19.25;17.75;;;18.30;91.80;;;;;;5066372;28;20039;-68
2023/05/04 10:43:39;;;;;;;21.73;19.85;;;18.40;92.40;;;;;;5060397;28;20134;-68
2023/05/04 10:46:21;;;;;;;21.73;20.13;;;18.50;92.50;;;;;;5078428;28;20127;-69
2023/05/04 10:48:47;;;;;;;22.63;20.92;;;18.70;93.00;;;;;;5083191;28;20532;-69
2023/05/04 10:51:31;;;;;;;22.17;20.42;;;18.90;92.70;;;;;;5073760;28;20036;-69
2023/05/04 10:54:00;;;;;;;22.10;20.40;;;18.90;91.60;;;;;;5073719;28;20076;-68
2023/05/04 10:56:27;;;;;;;21.85;20.05;;;19.00;91.20;;;;;;5065753;28;20462;-68
2023/05/04 10:58:53;;;;;;;21.98;20.25;;;19.00;90.80;;;;;;5068907;28;20086;-68
2023/05/04 11:01:20;;;;;;;20.77;19.13;;;18.90;89.80;;;;;;5074501;28;20048;-69
2023/05/04 11:03:47;;;;;;;21.83;20.23;;;18.90;87.90;;;;;;5076597;28;20419;-68
2023/05/04 11:06:18;;;;;;;21.30;19.35;;;18.90;90.20;;;;;;5062408;28;20050;-68
2023/05/04 11:08:48;;;;;;;26.85;24.85;;;19.00;90.80;;;;;;5078193;28;20072;-69
2023/05/04 11:11:14;;;;;;;24.80;22.80;;;19.10;91.50;;;;;;5065927;28;20039;-69
2023/05/04 11:13:46;;;;;;;25.40;23.70;;;19.20;90.00;;;;;;5078562;28;20067;-68
2023/05/04 11:16:13;;;;;;;21.08;19.52;;;19.30;87.90;;;;;;5076828;28;20082;-69
2023/05/04 11:18:40;;;;;;;21.45;19.80;;;19.10;83.00;;;;;;5077487;28;20044;-68
2023/05/04 11:21:07;;;;;;;19.95;18.35;;;18.90;84.00;;;;;;5075130;28;20113;-68
2023/05/04 11:23:33;;;;;;;21.23;19.63;;;18.70;83.70;;;;;;5074436;28;20044;-69
2023/05/04 11:26:11;;;;;;;20.17;18.65;;;18.70;84.60;;;;;;5061949;28;20048;-68
2023/05/04 11:28:37;;;;;;;21.92;20.23;;;18.60;84.70;;;;;;5065375;28;20048;-68
2023/05/04 11:31:16;;;;;;;22.80;20.80;;;18.60;86.70;;;;;;5073422;28;20737;-68
2023/05/04 11:33:53;;;;;;;22.27;20.77;;;18.80;88.20;;;;;;5062033;28;20104;-68
2023/05/04 11:36:20;;;;;;;24.00;22.20;;;19.10;90.20;;;;;;5075231;28;20523;-68
2023/05/04 11:38:46;;;;;;;28.17;26.15;;;19.40;90.10;;;;;;5079644;28;20036;-68
2023/05/04 11:41:12;;;;;;;24.42;22.83;;;19.60;82.90;;;;;;5068325;28;20051;-68
2023/05/04 11:43:39;;;;;;;28.98;27.10;;;19.70;84.80;;;;;;5068745;28;20566;-68
2023/05/04 11:46:06;;;;;;;23.13;21.63;;;19.70;82.70;;;;;;5064607;28;20450;-68
2023/05/04 11:48:33;;;;;;;24.00;22.15;;;19.80;87.40;;;;;;5065649;28;20495;-68
2023/05/04 11:50:59;;;;;;;21.60;19.90;;;20.10;87.60;;;;;;5068189;28;20044;-68
2023/05/04 11:53:25;;;;;;;22.08;20.23;;;20.40;85.60;;;;;;5056208;28;20141;-68
2023/05/04 11:55:53;;;;;;;29.33;27.55;;;20.50;77.30;;;;;;5071855;28;20677;-68
2023/05/04 11:58:27;;;;;;;39.25;36.95;;;20.30;80.20;;;;;;5068508;28;20036;-68
2023/05/04 12:00:57;;;;;;;34.22;32.15;;;20.10;80.00;;;;;;5089697;28;20032;-68
2023/05/04 12:03:34;;;;;;;17.70;16.42;;;20.20;78.20;;;;;;5074005;28;20047;-68
2023/05/04 12:06:00;;;;;;;27.60;25.52;;;20.20;75.40;;;;;;5085285;28;20442;-68
2023/05/04 12:08:33;;;;;;;39.92;37.63;;;20.20;76.40;;;;;;5067237;28;20043;-68
2023/05/04 12:11:12;;;;;;;44.03;41.58;;;20.20;76.50;;;;;;5077715;28;20143;-68
2023/05/04 12:13:39;;;;;;;32.15;30.30;;;20.40;79.90;;;;;;5074307;28;20043;-68
2023/05/04 12:16:12;;;;;;;30.02;27.90;;;20.50;76.20;;;;;;5085012;28;20040;-68
2023/05/04 12:18:38;;;;;;;36.08;33.72;;;20.60;78.40;;;;;;5086813;28;20075;-68
2023/05/04 12:21:08;;;;;;;18.15;16.77;;;20.80;79.90;;;;;;5079786;28;20118;-68
2023/05/04 12:23:35;;;;;;;15.82;14.40;;;21.10;77.30;;;;;;5077334;28;20481;-68
2023/05/04 12:26:01;;;;;;;13.75;11.85;;;21.10;75.00;;;;;;5081194;28;20147;-68